Hexham, United Kingdom
Current Conditions -  °F | °C
As of 11:20 AM on Friday 28 Nov 2014 (Local Time) from EGNT Reporting Station
Haze Haze  
Wind Chill: 50°   Ceiling: 400
Heat Index: 50°   Visibility: 1.2mi
Dew Point: 48°   Wind: 10mph
Humidity: 94%   Direction: 110°ESE
Pressure: 29.74"   Gusts: NA
Location:  54.97°N, 2.1°W
Report Text: EGNT 281120Z 11009KT 090V150 2000 BR FEW002 BKN004 10/09 Q1007
Loading
Personal Weather Stations






























Interactive Weather Map New forecast layout! Learn more

10-Day Weather Forecast

Advertisements
Track Severe Weather on mobile